createdAt,value
2022-10-29T00:03:13.506Z,7.40
2022-10-29T00:08:17.109Z,6.68
2022-10-29T00:13:21.549Z,5.90
2022-10-29T00:18:25.242Z,6.43
2022-10-29T00:23:28.468Z,5.90
2022-10-29T00:28:58.101Z,5.88
2022-10-29T00:34:01.180Z,5.18
2022-10-29T00:39:04.674Z,5.35
2022-10-29T00:44:39.212Z,6.03
2022-10-29T00:49:42.274Z,5.90
2022-10-29T00:54:45.844Z,6.15
2022-10-29T00:59:50.679Z,6.25
2022-10-29T01:04:53.770Z,7.07
2022-10-29T01:09:56.858Z,6.90
2022-10-29T01:15:08.342Z,7.20
2022-10-29T01:20:39.648Z,7.28
2022-10-29T01:26:09.059Z,7.15
2022-10-29T01:31:20.368Z,6.30
2022-10-29T01:36:27.232Z,6.30
2022-10-29T01:41:33.522Z,6.50
2022-10-29T01:46:39.092Z,7.10
2022-10-29T01:51:42.284Z,6.22
2022-10-29T01:56:45.786Z,7.18
2022-10-29T02:01:56.372Z,6.95
2022-10-29T02:07:01.523Z,6.38
2022-10-29T02:12:08.502Z,6.10
2022-10-29T02:17:15.343Z,6.15
2022-10-29T02:22:18.804Z,7.07
2022-10-29T02:27:22.299Z,7.05
2022-10-29T02:32:27.159Z,5.93
2022-10-29T02:37:30.708Z,6.43
2022-10-29T02:42:34.257Z,6.13
2022-10-29T02:47:38.827Z,6.40
2022-10-29T02:52:41.893Z,7.10
2022-10-29T02:57:45.975Z,6.57
2022-10-29T03:02:52.892Z,6.50
2022-10-29T03:07:56.029Z,7.00
2022-10-29T03:12:59.780Z,7.15
2022-10-29T03:18:04.417Z,7.70
2022-10-29T03:23:07.484Z,7.10
2022-10-29T03:28:10.870Z,7.20
2022-10-29T03:33:15.386Z,6.90
2022-10-29T03:38:19.049Z,6.72
2022-10-29T03:43:22.821Z,6.88
2022-10-29T03:48:27.281Z,6.65
2022-10-29T03:53:31.027Z,6.75
2022-10-29T03:58:34.535Z,6.60
2022-10-29T04:03:42.408Z,6.95
2022-10-29T04:08:45.913Z,7.80
2022-10-29T04:13:49.021Z,7.40
2022-10-29T04:18:53.878Z,7.18
2022-10-29T04:29:20.951Z,7.07
2022-10-29T04:34:29.178Z,6.70
2022-10-29T04:39:32.705Z,6.85
2022-10-29T04:44:36.221Z,6.93
2022-10-29T04:49:40.663Z,7.03
2022-10-29T04:54:43.693Z,7.13
2022-10-29T04:59:47.281Z,7.10
2022-10-29T05:04:51.823Z,8.23
2022-10-29T05:09:54.972Z,7.68
2022-10-29T05:14:58.470Z,7.50
2022-10-29T05:20:04.608Z,10.35
2022-10-29T05:25:08.611Z,8.73
2022-10-29T05:30:12.552Z,8.02
2022-10-29T05:35:17.335Z,8.68
2022-10-29T05:40:20.638Z,9.65
2022-10-29T05:45:23.750Z,7.35
2022-10-29T05:50:28.794Z,8.38
2022-10-29T05:55:32.645Z,7.60
2022-10-29T06:00:38.579Z,8.23
2022-10-29T06:05:44.636Z,9.88
2022-10-29T06:10:48.207Z,7.10
2022-10-29T06:15:51.547Z,8.55
2022-10-29T06:20:56.338Z,8.20
2022-10-29T06:26:00.707Z,8.38
2022-10-29T06:31:04.110Z,8.88
2022-10-29T06:36:09.289Z,9.07
2022-10-29T06:41:12.856Z,7.60
2022-10-29T06:46:16.173Z,8.85
2022-10-29T06:51:20.704Z,9.45
2022-10-29T06:56:23.747Z,9.32
2022-10-29T07:01:30.758Z,9.40
2022-10-29T07:06:36.649Z,9.02
2022-10-29T07:11:43.217Z,8.35
2022-10-29T07:17:11.149Z,8.02
2022-10-29T07:22:15.583Z,8.40
2022-10-29T07:27:18.746Z,7.60
2022-10-29T07:32:21.783Z,7.72
2022-10-29T07:37:26.225Z,7.97
2022-10-29T07:42:29.336Z,6.57
2022-10-29T07:47:32.616Z,7.65
2022-10-29T07:52:37.135Z,6.25
2022-10-29T07:57:40.713Z,7.25
2022-10-29T08:02:43.902Z,7.50
2022-10-29T08:07:49.309Z,6.97
2022-10-29T08:13:21.427Z,7.60
2022-10-29T08:18:24.560Z,7.20
2022-10-29T08:23:31.789Z,8.63
2022-10-29T08:28:38.011Z,7.82
2022-10-29T08:33:41.472Z,6.95
2022-10-29T08:38:45.916Z,6.93
2022-10-29T08:44:24.545Z,7.65
2022-10-29T08:49:31.904Z,6.90
2022-10-29T08:54:39.287Z,8.48
2022-10-29T08:59:43.820Z,7.30
2022-10-29T09:04:47.809Z,7.55
2022-10-29T09:09:56.139Z,7.68
2022-10-29T09:15:16.223Z,7.10
2022-10-29T09:20:24.318Z,7.38
2022-10-29T09:25:32.828Z,7.97
2022-10-29T09:30:39.438Z,6.93
2022-10-29T09:35:44.938Z,7.15
2022-10-29T09:40:49.791Z,7.28
2022-10-29T09:45:57.613Z,7.40
2022-10-29T09:51:07.267Z,7.97
2022-10-29T09:56:11.655Z,7.55
2022-10-29T10:01:15.007Z,7.80
2022-10-29T10:06:18.750Z,7.75
2022-10-29T10:11:23.189Z,7.32
2022-10-29T10:16:28.919Z,7.03
2022-10-29T10:21:34.584Z,7.28
2022-10-29T10:26:43.276Z,8.02
2022-10-29T10:31:50.404Z,7.50
2022-10-29T10:36:55.039Z,6.72
2022-10-29T10:42:01.048Z,6.78
2022-10-29T10:47:06.699Z,7.35
2022-10-29T10:52:16.690Z,7.65
2022-10-29T10:57:23.788Z,7.45
2022-10-29T11:02:34.286Z,7.05
2022-10-29T11:07:37.962Z,7.43
2022-10-29T11:12:43.889Z,7.30
2022-10-29T11:17:53.926Z,6.72
2022-10-29T11:23:03.704Z,6.53
2022-10-29T11:28:12.996Z,6.85
2022-10-29T11:33:18.389Z,7.18
2022-10-29T11:38:23.209Z,7.25
2022-10-29T11:43:28.013Z,6.93
2022-10-29T11:48:40.956Z,7.35
2022-10-29T11:53:57.455Z,6.53
2022-10-29T11:59:04.233Z,6.88
2022-10-29T12:04:25.371Z,6.65
2022-10-29T12:09:47.382Z,6.07
2022-10-29T12:14:53.122Z,7.30
2022-10-29T12:19:58.679Z,6.57
2022-10-29T12:25:24.234Z,6.68
2022-10-29T12:30:28.709Z,6.53
2022-10-29T12:35:34.626Z,6.97
2022-10-29T12:40:40.009Z,6.38
2022-10-29T12:46:14.331Z,6.47
2022-10-29T12:51:13.322Z,5.95
2022-10-29T12:56:16.805Z,6.10
2022-10-29T13:07:24.139Z,5.68
2022-10-29T13:12:56.346Z,5.50
2022-10-29T13:18:02.317Z,6.03
2022-10-29T13:23:16.150Z,5.80
2022-10-29T13:34:51.956Z,5.90
2022-10-29T13:40:37.088Z,5.55
2022-10-29T13:45:42.394Z,5.35
2022-10-29T13:50:49.743Z,6.50
2022-10-29T13:56:11.515Z,6.03
2022-10-29T14:01:20.865Z,5.90
2022-10-29T14:06:28.175Z,5.97
2022-10-29T14:11:33.675Z,6.10
2022-10-29T14:16:36.730Z,6.57
2022-10-29T14:21:41.204Z,6.63
2022-10-29T14:26:45.570Z,6.72
2022-10-29T14:31:49.006Z,6.07
2022-10-29T14:36:54.194Z,6.20
2022-10-29T14:41:57.885Z,6.55
2022-10-29T14:47:04.471Z,7.50
2022-10-29T14:52:16.990Z,7.22
2022-10-29T14:57:23.006Z,6.53
2022-10-29T15:02:38.340Z,6.43
2022-10-29T15:07:44.117Z,8.68
2022-10-29T15:12:51.271Z,6.97
2022-10-29T15:17:57.509Z,6.65
2022-10-29T15:23:02.244Z,6.78
2022-10-29T15:28:06.613Z,6.93
2022-10-29T15:33:17.456Z,7.07
2022-10-29T15:39:04.040Z,6.55
2022-10-29T15:44:38.058Z,6.72
2022-10-29T15:49:41.259Z,6.63
2022-10-29T16:00:14.375Z,7.97
2022-10-29T16:05:18.449Z,7.63
2022-10-29T16:10:23.290Z,7.70
2022-10-29T16:20:30.319Z,8.88
2022-10-29T16:25:34.860Z,7.65
2022-10-29T16:35:43.428Z,8.30
2022-10-29T16:40:51.661Z,9.13
2022-10-29T16:45:57.536Z,8.05
2022-10-29T16:51:03.093Z,9.55
2022-10-29T16:56:08.594Z,8.82
2022-10-29T17:01:12.142Z,9.02
2022-10-29T17:06:16.185Z,9.05
2022-10-29T17:11:24.244Z,8.73
2022-10-29T17:16:27.958Z,9.25
2022-10-29T17:21:31.716Z,9.00
2022-10-29T17:26:37.234Z,9.10
2022-10-29T17:31:40.356Z,10.45
2022-10-29T17:36:44.496Z,10.55
2022-10-29T17:41:49.068Z,9.02
2022-10-29T17:46:52.843Z,10.60
2022-10-29T17:51:55.941Z,9.32
2022-10-29T17:57:00.474Z,8.70
2022-10-29T18:02:03.667Z,8.88
2022-10-29T18:07:07.425Z,7.55
2022-10-29T18:12:11.952Z,8.43
2022-10-29T18:17:15.450Z,8.88
2022-10-29T18:22:18.491Z,10.40
2022-10-29T18:27:22.919Z,8.80
2022-10-29T18:32:25.967Z,8.18
2022-10-29T18:37:29.388Z,9.35
2022-10-29T18:42:34.173Z,9.38
2022-10-29T18:47:37.630Z,8.55
2022-10-29T18:52:43.581Z,9.88
2022-10-29T18:57:50.568Z,9.70
2022-10-29T19:02:55.416Z,12.43
2022-10-29T19:07:59.092Z,11.40
2022-10-29T19:13:07.164Z,11.40
2022-10-29T19:18:10.314Z,12.52
2022-10-29T19:23:13.809Z,9.85
2022-10-29T19:28:18.285Z,9.80
2022-10-29T19:33:21.391Z,10.63
2022-10-29T19:38:24.962Z,10.80
2022-10-29T19:43:29.615Z,9.65
2022-10-29T19:48:32.858Z,11.13
2022-10-29T19:53:36.393Z,10.25
2022-10-29T19:58:43.245Z,10.40
2022-10-29T20:03:46.828Z,10.55
2022-10-29T20:08:49.991Z,10.07
2022-10-29T20:13:54.467Z,10.23
2022-10-29T20:18:57.659Z,9.73
2022-10-29T20:24:01.234Z,10.57
2022-10-29T20:29:05.752Z,11.18
2022-10-29T20:34:09.882Z,12.85
2022-10-29T20:39:14.215Z,13.02
2022-10-29T20:44:18.685Z,14.00
2022-10-29T20:49:22.334Z,15.32
2022-10-29T20:54:25.404Z,14.75
2022-10-29T20:59:30.678Z,13.80
2022-10-29T21:04:37.456Z,15.80
2022-10-29T21:09:41.299Z,15.63
2022-10-29T21:14:45.671Z,14.90
2022-10-29T21:19:48.832Z,13.15
2022-10-29T21:24:51.969Z,11.70
2022-10-29T21:29:56.608Z,13.05
2022-10-29T21:35:00.051Z,15.77
2022-10-29T21:40:06.071Z,12.15
2022-10-29T21:45:12.226Z,11.18
2022-10-29T21:50:15.682Z,11.30
2022-10-29T21:55:18.875Z,12.38
2022-10-29T22:00:23.815Z,12.98
2022-10-29T22:05:27.346Z,12.48
2022-10-29T22:10:30.974Z,12.10
2022-10-29T22:15:35.486Z,13.10
2022-10-29T22:20:38.991Z,12.43
2022-10-29T22:25:42.829Z,11.45
2022-10-29T22:30:47.235Z,12.48
2022-10-29T22:35:50.355Z,11.90
2022-10-29T22:40:57.323Z,10.93
2022-10-29T22:46:01.766Z,11.73
2022-10-29T22:51:06.302Z,11.30
2022-10-29T22:56:10.216Z,11.40
2022-10-29T23:01:15.557Z,12.38
2022-10-29T23:06:20.042Z,14.02
2022-10-29T23:11:23.793Z,12.00
2022-10-29T23:16:29.953Z,11.20
2022-10-29T23:21:33.149Z,12.75
2022-10-29T23:26:38.111Z,15.20
2022-10-29T23:31:42.527Z,13.70
2022-10-29T23:36:46.673Z,12.63
2022-10-29T23:41:49.806Z,13.95
2022-10-29T23:46:54.304Z,12.75
2022-10-29T23:52:00.730Z,12.38
2022-10-29T23:57:03.783Z,15.80
